sensor_id;sensor_type;location;lat;lon;timestamp;pressure;altitude;pressure_sealevel;temperature;humidity
40117;BME280;25829;50.228;18.936;2023-11-19T00:00:49;99078.56;;;-0.87;74.24
40117;BME280;25829;50.228;18.936;2023-11-19T00:03:51;99075.25;;;-0.89;74.73
40117;BME280;25829;50.228;18.936;2023-11-19T00:06:52;99068.69;;;-0.93;74.58
40117;BME280;25829;50.228;18.936;2023-11-19T00:09:53;99081.03;;;-0.97;74.58
40117;BME280;25829;50.228;18.936;2023-11-19T00:12:55;99075.03;;;-0.97;74.63
40117;BME280;25829;50.228;18.936;2023-11-19T00:15:57;99082.09;;;-0.99;74.67
40117;BME280;25829;50.228;18.936;2023-11-19T00:18:58;99062.09;;;-0.97;75.31
40117;BME280;25829;50.228;18.936;2023-11-19T00:21:59;99062.69;;;-0.94;75.17
40117;BME280;25829;50.228;18.936;2023-11-19T00:25:04;99071.97;;;-0.91;75.18
40117;BME280;25829;50.228;18.936;2023-11-19T00:28:06;99061.50;;;-0.90;75.36
40117;BME280;25829;50.228;18.936;2023-11-19T00:31:06;99054.69;;;-0.91;74.77
40117;BME280;25829;50.228;18.936;2023-11-19T00:34:07;99060.69;;;-0.90;75.52
40117;BME280;25829;50.228;18.936;2023-11-19T00:37:08;99056.41;;;-0.91;75.37
40117;BME280;25829;50.228;18.936;2023-11-19T00:40:09;99049.50;;;-0.91;75.55
40117;BME280;25829;50.228;18.936;2023-11-19T00:43:11;99053.97;;;-0.93;75.47
40117;BME280;25829;50.228;18.936;2023-11-19T00:46:11;99063.25;;;-0.90;75.06
40117;BME280;25829;50.228;18.936;2023-11-19T00:49:13;99057.00;;;-0.88;75.19
40117;BME280;25829;50.228;18.936;2023-11-19T00:52:16;99045.72;;;-0.87;75.48
40117;BME280;25829;50.228;18.936;2023-11-19T00:55:17;99045.47;;;-0.84;75.38
40117;BME280;25829;50.228;18.936;2023-11-19T00:58:18;99050.41;;;-0.80;75.57
40117;BME280;25829;50.228;18.936;2023-11-19T01:01:19;99047.94;;;-0.82;75.21
40117;BME280;25829;50.228;18.936;2023-11-19T01:04:19;99049.81;;;-0.84;74.99
40117;BME280;25829;50.228;18.936;2023-11-19T01:07:23;99059.84;;;-0.79;75.38
40117;BME280;25829;50.228;18.936;2023-11-19T01:10:25;99052.06;;;-0.79;75.19
40117;BME280;25829;50.228;18.936;2023-11-19T01:13:26;99048.53;;;-0.78;74.54
40117;BME280;25829;50.228;18.936;2023-11-19T01:16:27;99038.03;;;-0.77;74.63
40117;BME280;25829;50.228;18.936;2023-11-19T01:19:31;99027.66;;;-0.77;75.11
40117;BME280;25829;50.228;18.936;2023-11-19T01:22:35;99029.56;;;-0.79;74.49
40117;BME280;25829;50.228;18.936;2023-11-19T01:25:36;99024.84;;;-0.85;74.46
40117;BME280;25829;50.228;18.936;2023-11-19T01:28:41;99017.09;;;-0.85;75.05
40117;BME280;25829;50.228;18.936;2023-11-19T01:31:46;98999.34;;;-0.90;74.75
40117;BME280;25829;50.228;18.936;2023-11-19T01:34:55;98987.69;;;-0.95;74.57
40117;BME280;25829;50.228;18.936;2023-11-19T01:37:55;98977.56;;;-0.98;75.12
40117;BME280;25829;50.228;18.936;2023-11-19T01:40:59;98998.50;;;-1.01;75.08
40117;BME280;25829;50.228;18.936;2023-11-19T01:44:00;98995.34;;;-1.05;75.40
40117;BME280;25829;50.228;18.936;2023-11-19T01:47:01;98979.13;;;-1.07;75.49
40117;BME280;25829;50.228;18.936;2023-11-19T01:50:03;98978.16;;;-1.06;75.31
40117;BME280;25829;50.228;18.936;2023-11-19T01:53:07;98955.91;;;-1.09;74.94
40117;BME280;25829;50.228;18.936;2023-11-19T01:56:08;98951.69;;;-1.10;75.20
40117;BME280;25829;50.228;18.936;2023-11-19T01:59:11;98941.47;;;-1.11;75.15
40117;BME280;25829;50.228;18.936;2023-11-19T02:02:14;98940.88;;;-1.15;74.84
40117;BME280;25829;50.228;18.936;2023-11-19T02:05:15;98941.13;;;-1.18;74.92
40117;BME280;25829;50.228;18.936;2023-11-19T02:08:16;98924.78;;;-1.18;75.26
40117;BME280;25829;50.228;18.936;2023-11-19T02:11:18;98916.88;;;-1.17;74.99
40117;BME280;25829;50.228;18.936;2023-11-19T02:14:44;98905.81;;;-1.19;74.94
40117;BME280;25829;50.228;18.936;2023-11-19T02:17:45;98885.38;;;-1.22;75.27
40117;BME280;25829;50.228;18.936;2023-11-19T02:20:46;98877.84;;;-1.25;74.94
40117;BME280;25829;50.228;18.936;2023-11-19T02:23:47;98866.78;;;-1.27;75.12
40117;BME280;25829;50.228;18.936;2023-11-19T02:27:57;98860.78;;;-1.27;74.95
40117;BME280;25829;50.228;18.936;2023-11-19T02:30:29;98863.59;;;-1.31;74.79
40117;BME280;25829;50.228;18.936;2023-11-19T02:33:33;98859.97;;;-1.28;75.02
40117;BME280;25829;50.228;18.936;2023-11-19T02:36:34;98859.97;;;-1.28;75.27
40117;BME280;25829;50.228;18.936;2023-11-19T02:39:35;98853.97;;;-1.28;75.21
40117;BME280;25829;50.228;18.936;2023-11-19T02:42:44;98844.28;;;-1.26;75.17
40117;BME280;25829;50.228;18.936;2023-11-19T02:45:45;98831.50;;;-1.28;75.13
40117;BME280;25829;50.228;18.936;2023-11-19T02:48:46;98824.63;;;-1.29;74.79
40117;BME280;25829;50.228;18.936;2023-11-19T02:51:47;98815.25;;;-1.30;74.85
40117;BME280;25829;50.228;18.936;2023-11-19T02:54:47;98811.84;;;-1.31;75.28
40117;BME280;25829;50.228;18.936;2023-11-19T02:57:48;98819.16;;;-1.36;74.97
40117;BME280;25829;50.228;18.936;2023-11-19T03:00:50;98805.50;;;-1.38;75.09
40117;BME280;25829;50.228;18.936;2023-11-19T03:04:10;98797.84;;;-1.39;75.38
40117;BME280;25829;50.228;18.936;2023-11-19T03:07:12;98816.91;;;-1.40;74.92
40117;BME280;25829;50.228;18.936;2023-11-19T03:10:13;98823.88;;;-1.41;75.53
40117;BME280;25829;50.228;18.936;2023-11-19T03:13:15;98824.00;;;-1.42;75.16
40117;BME280;25829;50.228;18.936;2023-11-19T03:16:16;98816.34;;;-1.44;75.14
40117;BME280;25829;50.228;18.936;2023-11-19T03:19:17;98818.94;;;-1.44;74.97
40117;BME280;25829;50.228;18.936;2023-11-19T03:22:18;98807.91;;;-1.46;74.76
40117;BME280;25829;50.228;18.936;2023-11-19T03:25:19;98791.81;;;-1.49;74.21
40117;BME280;25829;50.228;18.936;2023-11-19T03:28:19;98775.94;;;-1.56;74.71
40117;BME280;25829;50.228;18.936;2023-11-19T03:31:20;98774.53;;;-1.60;74.49
40117;BME280;25829;50.228;18.936;2023-11-19T03:34:21;98780.88;;;-1.64;74.98
40117;BME280;25829;50.228;18.936;2023-11-19T03:37:22;98776.53;;;-1.64;74.96
40117;BME280;25829;50.228;18.936;2023-11-19T03:40:29;98771.34;;;-1.64;74.87
40117;BME280;25829;50.228;18.936;2023-11-19T03:43:31;98775.59;;;-1.63;75.10
40117;BME280;25829;50.228;18.936;2023-11-19T03:46:38;98754.09;;;-1.63;75.63
40117;BME280;25829;50.228;18.936;2023-11-19T03:49:38;98725.63;;;-1.63;75.52
40117;BME280;25829;50.228;18.936;2023-11-19T03:52:39;98726.44;;;-1.63;75.03
40117;BME280;25829;50.228;18.936;2023-11-19T03:55:40;98727.94;;;-1.60;75.30
40117;BME280;25829;50.228;18.936;2023-11-19T03:58:41;98727.28;;;-1.62;75.21
40117;BME280;25829;50.228;18.936;2023-11-19T04:01:42;98717.75;;;-1.62;75.49
40117;BME280;25829;50.228;18.936;2023-11-19T04:04:43;98713.28;;;-1.60;75.19
40117;BME280;25829;50.228;18.936;2023-11-19T04:07:44;98706.44;;;-1.61;75.72
40117;BME280;25829;50.228;18.936;2023-11-19T04:10:44;98696.09;;;-1.61;75.71
40117;BME280;25829;50.228;18.936;2023-11-19T04:13:45;98706.91;;;-1.56;75.62
40117;BME280;25829;50.228;18.936;2023-11-19T04:16:46;98714.41;;;-1.52;75.93
40117;BME280;25829;50.228;18.936;2023-11-19T04:19:50;98706.28;;;-1.48;75.58
40117;BME280;25829;50.228;18.936;2023-11-19T04:22:51;98705.22;;;-1.45;74.72
40117;BME280;25829;50.228;18.936;2023-11-19T04:25:51;98699.09;;;-1.44;75.40
40117;BME280;25829;50.228;18.936;2023-11-19T04:28:52;98696.50;;;-1.44;75.66
40117;BME280;25829;50.228;18.936;2023-11-19T04:31:54;98692.13;;;-1.44;75.68
40117;BME280;25829;50.228;18.936;2023-11-19T04:34:55;98680.25;;;-1.46;75.15
40117;BME280;25829;50.228;18.936;2023-11-19T04:37:56;98681.47;;;-1.50;75.19
40117;BME280;25829;50.228;18.936;2023-11-19T04:40:57;98676.28;;;-1.50;75.06
40117;BME280;25829;50.228;18.936;2023-11-19T04:43:58;98665.69;;;-1.47;75.68
40117;BME280;25829;50.228;18.936;2023-11-19T04:46:59;98669.09;;;-1.47;75.50
40117;BME280;25829;50.228;18.936;2023-11-19T04:50:00;98675.09;;;-1.46;75.55
40117;BME280;25829;50.228;18.936;2023-11-19T04:53:00;98679.34;;;-1.45;75.67
40117;BME280;25829;50.228;18.936;2023-11-19T04:56:07;98667.06;;;-1.43;75.19
40117;BME280;25829;50.228;18.936;2023-11-19T04:59:09;98667.06;;;-1.43;75.21
40117;BME280;25829;50.228;18.936;2023-11-19T05:02:10;98673.06;;;-1.43;75.35
40117;BME280;25829;50.228;18.936;2023-11-19T05:05:10;98653.06;;;-1.41;75.46
40117;BME280;25829;50.228;18.936;2023-11-19T05:08:12;98641.75;;;-1.40;75.15
40117;BME280;25829;50.228;18.936;2023-11-19T05:11:12;98634.00;;;-1.40;74.96
40117;BME280;25829;50.228;18.936;2023-11-19T05:14:18;98627.75;;;-1.37;75.72
40117;BME280;25829;50.228;18.936;2023-11-19T05:17:22;98621.63;;;-1.36;75.29
40117;BME280;25829;50.228;18.936;2023-11-19T05:20:23;98614.56;;;-1.34;75.26
40117;BME280;25829;50.228;18.936;2023-11-19T05:23:23;98614.31;;;-1.31;75.96
40117;BME280;25829;50.228;18.936;2023-11-19T05:26:24;98616.66;;;-1.28;75.54
40117;BME280;25829;50.228;18.936;2023-11-19T05:29:25;98606.97;;;-1.26;75.44
40117;BME280;25829;50.228;18.936;2023-11-19T05:32:26;98596.75;;;-1.27;75.77
40117;BME280;25829;50.228;18.936;2023-11-19T05:35:26;98592.16;;;-1.24;75.79
40117;BME280;25829;50.228;18.936;2023-11-19T05:38:27;98582.34;;;-1.20;75.75
40117;BME280;25829;50.228;18.936;2023-11-19T05:41:29;98570.78;;;-1.16;75.96
40117;BME280;25829;50.228;18.936;2023-11-19T05:44:30;98563.72;;;-1.14;75.41
40117;BME280;25829;50.228;18.936;2023-11-19T05:47:30;98579.25;;;-1.14;75.84
40117;BME280;25829;50.228;18.936;2023-11-19T05:50:31;98575.84;;;-1.15;75.71
40117;BME280;25829;50.228;18.936;2023-11-19T05:53:35;98591.09;;;-1.12;75.86
40117;BME280;25829;50.228;18.936;2023-11-19T05:56:36;98604.59;;;-1.08;76.15
40117;BME280;25829;50.228;18.936;2023-11-19T05:59:37;98602.72;;;-1.06;75.85
40117;BME280;25829;50.228;18.936;2023-11-19T06:02:38;98599.41;;;-1.08;76.52
40117;BME280;25829;50.228;18.936;2023-11-19T06:05:38;98597.69;;;-1.08;76.46
40117;BME280;25829;50.228;18.936;2023-11-19T06:08:39;98600.13;;;-1.06;76.62
40117;BME280;25829;50.228;18.936;2023-11-19T06:11:40;98597.53;;;-1.06;76.76
40117;BME280;25829;50.228;18.936;2023-11-19T06:14:41;98593.06;;;-1.04;76.85
40117;BME280;25829;50.228;18.936;2023-11-19T06:17:41;98603.72;;;-0.97;77.15
40117;BME280;25829;50.228;18.936;2023-11-19T06:20:46;98591.19;;;-0.92;76.97
40117;BME280;25829;50.228;18.936;2023-11-19T06:23:46;98577.00;;;-0.88;76.91
40117;BME280;25829;50.228;18.936;2023-11-19T06:26:47;98574.03;;;-0.84;76.93
40117;BME280;25829;50.228;18.936;2023-11-19T06:29:48;98569.28;;;-0.78;77.00
40117;BME280;25829;50.228;18.936;2023-11-19T06:32:55;98560.81;;;-0.71;77.23
40117;BME280;25829;50.228;18.936;2023-11-19T06:35:56;98543.25;;;-0.67;77.43
40117;BME280;25829;50.228;18.936;2023-11-19T06:38:56;98534.13;;;-0.62;77.77
40117;BME280;25829;50.228;18.936;2023-11-19T06:41:57;98522.53;;;-0.57;77.26
40117;BME280;25829;50.228;18.936;2023-11-19T06:44:58;98522.13;;;-0.63;77.78
40117;BME280;25829;50.228;18.936;2023-11-19T06:48:03;98523.50;;;-0.58;77.72
40117;BME280;25829;50.228;18.936;2023-11-19T06:51:05;98530.31;;;-0.57;77.76
40117;BME280;25829;50.228;18.936;2023-11-19T07:03:30;98511.91;;;-0.54;78.38
40117;BME280;25829;50.228;18.936;2023-11-19T07:06:31;98522.66;;;-0.49;78.46
40117;BME280;25829;50.228;18.936;2023-11-19T07:09:45;98506.03;;;-0.47;78.46
40117;BME280;25829;50.228;18.936;2023-11-19T07:13:16;98519.81;;;-0.46;78.57
40117;BME280;25829;50.228;18.936;2023-11-19T07:16:20;98515.72;;;-0.39;78.82
40117;BME280;25829;50.228;18.936;2023-11-19T07:20:01;98506.03;;;-0.27;78.45
40117;BME280;25829;50.228;18.936;2023-11-19T07:26:44;98496.34;;;-0.25;78.54
40117;BME280;25829;50.228;18.936;2023-11-19T07:29:45;98493.47;;;-0.22;78.30
40117;BME280;25829;50.228;18.936;2023-11-19T07:32:46;98513.41;;;-0.23;77.94
40117;BME280;25829;50.228;18.936;2023-11-19T07:35:47;98506.03;;;-0.18;78.48
40117;BME280;25829;50.228;18.936;2023-11-19T07:39:30;98492.94;;;-0.06;77.75
40117;BME280;25829;50.228;18.936;2023-11-19T07:43:54;98485.97;;;-0.16;77.52
40117;BME280;25829;50.228;18.936;2023-11-19T07:48:31;98481.75;;;-0.17;78.10
40117;BME280;25829;50.228;18.936;2023-11-19T07:52:56;98454.84;;;-0.16;78.67
40117;BME280;25829;50.228;18.936;2023-11-19T07:55:59;98443.81;;;-0.18;78.75
40117;BME280;25829;50.228;18.936;2023-11-19T07:59:00;98449.81;;;-0.17;78.63
40117;BME280;25829;50.228;18.936;2023-11-19T08:02:01;98439.72;;;-0.10;79.28
40117;BME280;25829;50.228;18.936;2023-11-19T08:05:02;98422.63;;;-0.03;78.11
40117;BME280;25829;50.228;18.936;2023-11-19T08:08:03;98419.44;;;0.03;78.54
40117;BME280;25829;50.228;18.936;2023-11-19T08:11:05;98424.75;;;0.11;78.66
40117;BME280;25829;50.228;18.936;2023-11-19T08:14:05;98431.72;;;0.20;77.84
40117;BME280;25829;50.228;18.936;2023-11-19T08:17:06;98433.06;;;0.24;77.45
40117;BME280;25829;50.228;18.936;2023-11-19T08:20:08;98424.56;;;0.22;77.24
40117;BME280;25829;50.228;18.936;2023-11-19T08:23:14;98432.09;;;0.25;77.19
40117;BME280;25829;50.228;18.936;2023-11-19T08:26:18;98435.50;;;0.26;77.63
40117;BME280;25829;50.228;18.936;2023-11-19T08:29:19;98430.47;;;0.24;76.98
40117;BME280;25829;50.228;18.936;2023-11-19T08:32:29;98419.13;;;0.16;77.28
40117;BME280;25829;50.228;18.936;2023-11-19T08:35:38;98408.50;;;0.09;77.58
40117;BME280;25829;50.228;18.936;2023-11-19T08:38:39;98409.19;;;0.11;77.21
40117;BME280;25829;50.228;18.936;2023-11-19T08:41:40;98413.97;;;0.06;77.28
40117;BME280;25829;50.228;18.936;2023-11-19T08:44:43;98403.06;;;0.02;76.95
40117;BME280;25829;50.228;18.936;2023-11-19T08:47:44;98411.53;;;0.04;77.67
40117;BME280;25829;50.228;18.936;2023-11-19T08:50:45;98418.88;;;0.09;77.46
40117;BME280;25829;50.228;18.936;2023-11-19T08:53:49;98409.03;;;0.12;77.43
40117;BME280;25829;50.228;18.936;2023-11-19T08:56:50;98394.88;;;0.07;77.60
40117;BME280;25829;50.228;18.936;2023-11-19T08:59:51;98377.13;;;0.02;77.74
40117;BME280;25829;50.228;18.936;2023-11-19T09:02:51;98367.03;;;-0.01;77.97
40117;BME280;25829;50.228;18.936;2023-11-19T09:05:53;98361.84;;;-0.01;78.19
40117;BME280;25829;50.228;18.936;2023-11-19T09:08:54;98359.56;;;-0.04;78.36
40117;BME280;25829;50.228;18.936;2023-11-19T09:12:23;98353.53;;;-0.04;78.42
40117;BME280;25829;50.228;18.936;2023-11-19T09:15:56;98344.66;;;-0.02;79.12
40117;BME280;25829;50.228;18.936;2023-11-19T09:19:00;98355.00;;;0.08;79.03
40117;BME280;25829;50.228;18.936;2023-11-19T09:22:01;98351.97;;;0.12;78.76
40117;BME280;25829;50.228;18.936;2023-11-19T09:25:01;98354.16;;;0.17;78.60
40117;BME280;25829;50.228;18.936;2023-11-19T09:28:02;98350.84;;;0.25;78.26
40117;BME280;25829;50.228;18.936;2023-11-19T09:31:12;98332.41;;;0.28;78.53
40117;BME280;25829;50.228;18.936;2023-11-19T09:34:13;98325.25;;;0.30;78.30
40117;BME280;25829;50.228;18.936;2023-11-19T09:37:14;98318.00;;;0.33;78.39
40117;BME280;25829;50.228;18.936;2023-11-19T09:40:15;98310.09;;;0.35;78.50
40117;BME280;25829;50.228;18.936;2023-11-19T09:43:18;98302.00;;;0.38;78.65
40117;BME280;25829;50.228;18.936;2023-11-19T09:46:21;98287.19;;;0.48;78.63
40117;BME280;25829;50.228;18.936;2023-11-19T09:49:26;98282.88;;;0.57;78.21
40117;BME280;25829;50.228;18.936;2023-11-19T09:52:27;98267.81;;;0.60;78.08
40117;BME280;25829;50.228;18.936;2023-11-19T09:55:28;98268.63;;;0.61;78.47
40117;BME280;25829;50.228;18.936;2023-11-19T09:58:29;98256.63;;;0.60;77.75
40117;BME280;25829;50.228;18.936;2023-11-19T10:01:31;98256.78;;;0.58;77.88
40117;BME280;25829;50.228;18.936;2023-11-19T10:04:35;98243.06;;;0.66;78.44
40117;BME280;25829;50.228;18.936;2023-11-19T10:07:37;98238.91;;;0.73;78.03
40117;BME280;25829;50.228;18.936;2023-11-19T10:10:38;98231.69;;;0.85;77.62
40117;BME280;25829;50.228;18.936;2023-11-19T10:13:39;98218.38;;;0.88;77.26
40117;BME280;25829;50.228;18.936;2023-11-19T10:16:40;98219.06;;;0.90;77.10
40117;BME280;25829;50.228;18.936;2023-11-19T10:19:41;98214.22;;;0.95;76.98
40117;BME280;25829;50.228;18.936;2023-11-19T10:22:42;98208.25;;;1.03;76.29
40117;BME280;25829;50.228;18.936;2023-11-19T10:25:43;98217.44;;;1.15;76.90
40117;BME280;25829;50.228;18.936;2023-11-19T10:28:48;98207.44;;;1.28;75.93
40117;BME280;25829;50.228;18.936;2023-11-19T10:31:56;98195.28;;;1.37;76.03
40117;BME280;25829;50.228;18.936;2023-11-19T10:35:07;98190.59;;;1.41;75.40
40117;BME280;25829;50.228;18.936;2023-11-19T10:45:23;98166.09;;;1.43;75.23
40117;BME280;25829;50.228;18.936;2023-11-19T10:48:26;98160.56;;;1.46;75.52
40117;BME280;25829;50.228;18.936;2023-11-19T10:51:28;98156.38;;;1.53;75.77
40117;BME280;25829;50.228;18.936;2023-11-19T10:54:30;98158.81;;;1.55;75.35
40117;BME280;25829;50.228;18.936;2023-11-19T10:57:33;98153.78;;;1.53;76.09
40117;BME280;25829;50.228;18.936;2023-11-19T11:00:41;98145.47;;;1.50;75.99
40117;BME280;25829;50.228;18.936;2023-11-19T11:03:44;98143.69;;;1.50;76.17
40117;BME280;25829;50.228;18.936;2023-11-19T11:06:47;98142.41;;;1.54;76.45
40117;BME280;25829;50.228;18.936;2023-11-19T11:09:49;98149.38;;;1.54;75.95
40117;BME280;25829;50.228;18.936;2023-11-19T11:12:50;98141.44;;;1.55;76.34
40117;BME280;25829;50.228;18.936;2023-11-19T11:15:57;98130.88;;;1.57;76.49
40117;BME280;25829;50.228;18.936;2023-11-19T11:19:01;98126.84;;;1.63;77.04
40117;BME280;25829;50.228;18.936;2023-11-19T11:22:03;98122.59;;;1.62;76.97
40117;BME280;25829;50.228;18.936;2023-11-19T11:25:40;98108.09;;;1.51;76.59
40117;BME280;25829;50.228;18.936;2023-11-19T11:29:02;98102.22;;;1.41;77.20
40117;BME280;25829;50.228;18.936;2023-11-19T11:36:49;98088.91;;;1.36;77.44
40117;BME280;25829;50.228;18.936;2023-11-19T11:53:26;98071.44;;;0.77;79.18
40117;BME280;25829;50.228;18.936;2023-11-19T11:56:33;98070.94;;;0.74;78.74
40117;BME280;25829;50.228;18.936;2023-11-19T11:59:42;98072.72;;;0.73;79.07
40117;BME280;25829;50.228;18.936;2023-11-19T12:02:44;98065.25;;;0.70;79.08
40117;BME280;25829;50.228;18.936;2023-11-19T12:05:45;98056.47;;;0.71;79.70
40117;BME280;25829;50.228;18.936;2023-11-19T12:08:46;98050.78;;;0.68;79.20
40117;BME280;25829;50.228;18.936;2023-11-19T12:11:47;98044.44;;;0.62;79.76
40117;BME280;25829;50.228;18.936;2023-11-19T12:15:08;98046.19;;;0.62;79.77
40117;BME280;25829;50.228;18.936;2023-11-19T12:18:18;98038.28;;;0.63;80.04
40117;BME280;25829;50.228;18.936;2023-11-19T12:21:30;98026.97;;;0.72;79.80
40117;BME280;25829;50.228;18.936;2023-11-19T12:24:31;98018.41;;;0.80;80.06
40117;BME280;25829;50.228;18.936;2023-11-19T12:27:33;98021.53;;;0.92;80.00
40117;BME280;25829;50.228;18.936;2023-11-19T12:30:37;98020.22;;;0.88;79.35
40117;BME280;25829;50.228;18.936;2023-11-19T12:33:37;98015.50;;;0.91;79.66
40117;BME280;25829;50.228;18.936;2023-11-19T12:36:39;98008.91;;;0.97;79.85
40117;BME280;25829;50.228;18.936;2023-11-19T12:39:40;97999.13;;;0.99;79.44
40117;BME280;25829;50.228;18.936;2023-11-19T12:42:40;97995.72;;;0.90;79.77
40117;BME280;25829;50.228;18.936;2023-11-19T12:45:41;98006.09;;;0.90;80.32
40117;BME280;25829;50.228;18.936;2023-11-19T12:48:42;97994.06;;;0.89;79.95
40117;BME280;25829;50.228;18.936;2023-11-19T12:51:43;97985.94;;;0.84;80.58
40117;BME280;25829;50.228;18.936;2023-11-19T12:54:43;97973.44;;;0.79;80.33
40117;BME280;25829;50.228;18.936;2023-11-19T12:57:44;97973.28;;;0.81;80.65
40117;BME280;25829;50.228;18.936;2023-11-19T13:00:45;97976.88;;;0.88;80.53
40117;BME280;25829;50.228;18.936;2023-11-19T13:03:47;97970.75;;;0.97;81.16
40117;BME280;25829;50.228;18.936;2023-11-19T13:06:49;97969.94;;;1.05;80.57
40117;BME280;25829;50.228;18.936;2023-11-19T13:09:50;97965.06;;;1.10;80.46
40117;BME280;25829;50.228;18.936;2023-11-19T13:13:07;97969.31;;;1.11;80.25
40117;BME280;25829;50.228;18.936;2023-11-19T13:16:08;97952.91;;;1.11;80.88
40117;BME280;25829;50.228;18.936;2023-11-19T13:19:10;97951.44;;;1.16;80.96
40117;BME280;25829;50.228;18.936;2023-11-19T13:22:13;97945.78;;;1.21;80.52
40117;BME280;25829;50.228;18.936;2023-11-19T13:25:15;97950.00;;;1.22;80.98
40117;BME280;25829;50.228;18.936;2023-11-19T13:28:15;97951.81;;;1.29;81.09
40117;BME280;25829;50.228;18.936;2023-11-19T13:31:16;97945.31;;;1.34;80.84
40117;BME280;25829;50.228;18.936;2023-11-19T13:34:17;97940.78;;;1.36;81.04
40117;BME280;25829;50.228;18.936;2023-11-19T13:37:18;97932.97;;;1.36;81.15
40117;BME280;25829;50.228;18.936;2023-11-19T13:40:18;97931.84;;;1.38;81.50
40117;BME280;25829;50.228;18.936;2023-11-19T13:43:19;97929.38;;;1.45;81.48
40117;BME280;25829;50.228;18.936;2023-11-19T13:46:21;97927.13;;;1.50;81.63
40117;BME280;25829;50.228;18.936;2023-11-19T13:49:25;97919.00;;;1.53;82.04
40117;BME280;25829;50.228;18.936;2023-11-19T13:52:25;97923.38;;;1.61;82.34
40117;BME280;25829;50.228;18.936;2023-11-19T14:12:24;97896.00;;;2.06;82.42
40117;BME280;25829;50.228;18.936;2023-11-19T14:15:25;97895.66;;;2.09;82.55
40117;BME280;25829;50.228;18.936;2023-11-19T14:18:25;97897.75;;;2.13;82.74
40117;BME280;25829;50.228;18.936;2023-11-19T14:21:26;97902.31;;;2.19;82.40
40117;BME280;25829;50.228;18.936;2023-11-19T14:24:27;97904.88;;;2.27;82.57
40117;BME280;25829;50.228;18.936;2023-11-19T14:27:27;97885.69;;;2.29;82.78
40117;BME280;25829;50.228;18.936;2023-11-19T14:30:31;97891.03;;;2.35;82.83
40117;BME280;25829;50.228;18.936;2023-11-19T14:33:32;97887.25;;;2.38;82.96
40117;BME280;25829;50.228;18.936;2023-11-19T14:36:35;97884.97;;;2.43;83.03
40117;BME280;25829;50.228;18.936;2023-11-19T14:39:36;97887.56;;;2.43;83.33
40117;BME280;25829;50.228;18.936;2023-11-19T14:42:37;97894.41;;;2.44;83.52
40117;BME280;25829;50.228;18.936;2023-11-19T14:45:39;97902.53;;;2.49;83.33
40117;BME280;25829;50.228;18.936;2023-11-19T14:48:40;97894.53;;;2.50;83.47
40117;BME280;25829;50.228;18.936;2023-11-19T14:51:41;97891.59;;;2.54;83.15
40117;BME280;25829;50.228;18.936;2023-11-19T14:54:43;97889.47;;;2.57;83.45
40117;BME280;25829;50.228;18.936;2023-11-19T14:57:44;97873.50;;;2.60;83.16
40117;BME280;25829;50.228;18.936;2023-11-19T15:00:45;97886.00;;;2.65;83.39
40117;BME280;25829;50.228;18.936;2023-11-19T15:03:45;97887.91;;;2.71;83.33
40117;BME280;25829;50.228;18.936;2023-11-19T15:06:46;97885.59;;;2.76;83.19
40117;BME280;25829;50.228;18.936;2023-11-19T15:09:47;97891.28;;;2.80;83.26
40117;BME280;25829;50.228;18.936;2023-11-19T15:12:48;97901.03;;;2.86;83.07
40117;BME280;25829;50.228;18.936;2023-11-19T15:15:48;97902.13;;;2.91;82.95
40117;BME280;25829;50.228;18.936;2023-11-19T15:18:52;97899.19;;;2.94;83.13
40117;BME280;25829;50.228;18.936;2023-11-19T15:22:00;97902.25;;;2.98;82.83
40117;BME280;25829;50.228;18.936;2023-11-19T15:25:05;97897.84;;;2.98;82.87
40117;BME280;25829;50.228;18.936;2023-11-19T15:28:10;97895.72;;;3.02;82.65
40117;BME280;25829;50.228;18.936;2023-11-19T15:31:11;97887.72;;;3.04;82.89
40117;BME280;25829;50.228;18.936;2023-11-19T15:34:12;97894.56;;;3.05;83.05
40117;BME280;25829;50.228;18.936;2023-11-19T15:37:12;97891.97;;;3.05;82.97
40117;BME280;25829;50.228;18.936;2023-11-19T15:40:14;97885.56;;;3.07;82.86
40117;BME280;25829;50.228;18.936;2023-11-19T15:43:16;97892.25;;;3.10;82.89
40117;BME280;25829;50.228;18.936;2023-11-19T15:46:20;97897.91;;;3.13;82.82
40117;BME280;25829;50.228;18.936;2023-11-19T15:49:55;97904.38;;;3.17;82.68
40117;BME280;25829;50.228;18.936;2023-11-19T15:52:55;97905.50;;;3.23;82.68
40117;BME280;25829;50.228;18.936;2023-11-19T15:55:57;97895.34;;;3.28;82.78
40117;BME280;25829;50.228;18.936;2023-11-19T15:58:58;97895.81;;;3.32;82.56
40117;BME280;25829;50.228;18.936;2023-11-19T16:02:00;97899.72;;;3.36;82.74
40117;BME280;25829;50.228;18.936;2023-11-19T16:05:05;97895.13;;;3.38;82.41
40117;BME280;25829;50.228;18.936;2023-11-19T16:08:20;97890.56;;;3.40;82.33
40117;BME280;25829;50.228;18.936;2023-11-19T16:11:23;97879.13;;;3.41;82.67
40117;BME280;25829;50.228;18.936;2023-11-19T16:14:49;97874.25;;;3.46;82.65
40117;BME280;25829;50.228;18.936;2023-11-19T16:19:04;97876.66;;;3.48;82.14
40117;BME280;25829;50.228;18.936;2023-11-19T16:22:56;97875.84;;;3.47;82.09
40117;BME280;25829;50.228;18.936;2023-11-19T16:26:47;97886.28;;;3.47;82.51
40117;BME280;25829;50.228;18.936;2023-11-19T16:31:00;97892.66;;;3.44;82.21
40117;BME280;25829;50.228;18.936;2023-11-19T16:34:41;97899.31;;;3.47;82.36
40117;BME280;25829;50.228;18.936;2023-11-19T16:38:28;97888.09;;;3.47;82.28
40117;BME280;25829;50.228;18.936;2023-11-19T16:42:25;97900.78;;;3.50;82.51
40117;BME280;25829;50.228;18.936;2023-11-19T16:45:47;97889.50;;;3.49;82.40
40117;BME280;25829;50.228;18.936;2023-11-19T16:49:46;97882.53;;;3.50;82.79
40117;BME280;25829;50.228;18.936;2023-11-19T16:53:19;97875.31;;;3.52;82.77
40117;BME280;25829;50.228;18.936;2023-11-19T16:56:32;97881.34;;;3.52;82.68
40117;BME280;25829;50.228;18.936;2023-11-19T17:00:21;97886.84;;;3.57;82.51
40117;BME280;25829;50.228;18.936;2023-11-19T17:04:06;97894.94;;;3.62;82.84
40117;BME280;25829;50.228;18.936;2023-11-19T17:07:59;97898.34;;;3.63;82.42
40117;BME280;25829;50.228;18.936;2023-11-19T17:12:22;97904.69;;;3.68;82.55
40117;BME280;25829;50.228;18.936;2023-11-19T17:20:59;97884.25;;;3.72;82.50